createdAt,value
2022-12-29T00:02:00.247Z,86.85
2022-12-29T00:04:26.876Z,86.19
2022-12-29T00:06:54.633Z,86.19
2022-12-29T00:09:21.580Z,86.27
2022-12-29T00:11:48.443Z,85.62
2022-12-29T00:14:33.687Z,85.60
2022-12-29T00:17:00.503Z,85.20
2022-12-29T00:19:46.113Z,85.19
2022-12-29T00:22:33.725Z,85.05
2022-12-29T00:25:19.985Z,84.45
2022-12-29T00:28:07.407Z,85.20
2022-12-29T00:30:55.387Z,86.23
2022-12-29T00:33:44.669Z,86.04
2022-12-29T00:36:14.551Z,85.71
2022-12-29T00:39:04.615Z,85.83
2022-12-29T00:41:49.932Z,85.58
2022-12-29T00:44:16.859Z,85.26
2022-12-29T00:46:44.875Z,86.06
2022-12-29T00:49:31.993Z,86.96
2022-12-29T00:52:07.013Z,87.25
2022-12-29T00:54:36.247Z,87.09
2022-12-29T00:57:04.302Z,86.84
2022-12-29T00:59:31.609Z,87.11
2022-12-29T01:01:58.654Z,87.17
2022-12-29T01:04:27.409Z,87.75
2022-12-29T01:06:54.398Z,87.25
2022-12-29T01:09:40.289Z,87.29
2022-12-29T01:12:09.487Z,87.15
2022-12-29T01:14:37.147Z,87.45
2022-12-29T01:17:04.974Z,87.81
2022-12-29T01:19:33.201Z,87.36
2022-12-29T01:22:01.144Z,87.90
2022-12-29T01:24:28.833Z,87.00
2022-12-29T01:26:55.806Z,87.90
2022-12-29T01:29:23.005Z,87.65
2022-12-29T01:31:50.850Z,87.90
2022-12-29T01:34:18.836Z,88.06
2022-12-29T01:36:45.601Z,87.74
2022-12-29T01:39:13.308Z,88.33
2022-12-29T01:41:41.128Z,88.17
2022-12-29T01:44:45.387Z,88.67
2022-12-29T01:47:12.106Z,87.42
2022-12-29T01:49:39.503Z,87.77
2022-12-29T01:52:09.080Z,88.74
2022-12-29T01:54:43.680Z,88.83
2022-12-29T01:57:16.739Z,89.11
2022-12-29T01:59:52.148Z,87.92
2022-12-29T02:02:19.119Z,88.31
2022-12-29T02:04:45.722Z,88.57
2022-12-29T02:07:20.552Z,88.69
2022-12-29T02:09:49.917Z,89.03
2022-12-29T02:12:18.921Z,89.53
2022-12-29T02:14:46.512Z,89.48
2022-12-29T02:17:19.807Z,89.67
2022-12-29T02:20:20.509Z,89.66
2022-12-29T02:23:24.277Z,89.66
2022-12-29T02:26:15.421Z,89.18
2022-12-29T02:29:13.177Z,88.94
2022-12-29T02:31:52.146Z,88.72
2022-12-29T02:34:43.515Z,88.70
2022-12-29T02:37:40.254Z,88.55
2022-12-29T02:40:20.085Z,88.95
2022-12-29T02:42:51.884Z,89.44
2022-12-29T02:45:31.306Z,89.27
2022-12-29T02:48:04.641Z,88.48
2022-12-29T02:50:39.059Z,88.39
2022-12-29T02:53:10.300Z,88.09
2022-12-29T02:55:36.964Z,88.42
2022-12-29T02:58:09.560Z,87.85
2022-12-29T03:00:49.484Z,87.87
2022-12-29T03:03:34.202Z,87.80
2022-12-29T03:06:03.919Z,88.76
2022-12-29T03:08:40.172Z,88.43
2022-12-29T03:11:32.285Z,88.89
2022-12-29T03:14:44.801Z,88.62
2022-12-29T03:17:40.346Z,88.72
2022-12-29T03:20:18.564Z,89.13
2022-12-29T03:22:50.364Z,88.90
2022-12-29T03:25:39.172Z,89.46
2022-12-29T03:28:19.169Z,88.89
2022-12-29T03:30:48.216Z,89.60
2022-12-29T03:33:22.777Z,89.36
2022-12-29T03:35:53.032Z,89.57
2022-12-29T03:38:30.735Z,89.72
2022-12-29T03:41:00.575Z,89.74
2022-12-29T03:43:30.319Z,89.02
2022-12-29T03:45:57.504Z,89.31
2022-12-29T03:48:24.634Z,90.01
2022-12-29T03:50:54.568Z,89.94
2022-12-29T03:53:23.238Z,90.11
2022-12-29T03:55:50.613Z,90.17
2022-12-29T03:58:17.327Z,90.12
2022-12-29T04:01:03.625Z,89.96
2022-12-29T04:03:32.929Z,90.04
2022-12-29T04:05:59.597Z,90.57
2022-12-29T04:08:28.227Z,89.82
2022-12-29T04:10:54.968Z,90.17
2022-12-29T04:13:24.043Z,89.79
2022-12-29T04:15:52.665Z,90.11
2022-12-29T04:18:19.368Z,90.27
2022-12-29T04:21:01.764Z,89.95
2022-12-29T04:23:31.612Z,88.78
2022-12-29T04:25:58.799Z,89.06
2022-12-29T04:28:26.979Z,89.29
2022-12-29T04:31:05.118Z,88.92
2022-12-29T04:33:37.350Z,88.92
2022-12-29T04:36:04.419Z,89.60
2022-12-29T04:38:31.557Z,88.90
2022-12-29T04:41:01.580Z,88.48
2022-12-29T04:43:30.141Z,88.54
2022-12-29T04:46:17.176Z,88.77
2022-12-29T04:48:53.073Z,89.22
2022-12-29T04:51:35.484Z,89.16
2022-12-29T04:54:02.390Z,89.70
2022-12-29T04:56:29.789Z,88.51
2022-12-29T04:58:58.092Z,88.43
2022-12-29T05:01:24.711Z,87.99
2022-12-29T05:03:52.950Z,86.84
2022-12-29T05:06:19.653Z,87.45
2022-12-29T05:08:46.391Z,88.20
2022-12-29T05:11:13.101Z,88.16
2022-12-29T05:13:40.109Z,87.01
2022-12-29T05:16:07.022Z,87.10
2022-12-29T05:18:33.772Z,87.95
2022-12-29T05:21:00.516Z,88.69
2022-12-29T05:23:28.349Z,88.89
2022-12-29T05:25:59.829Z,89.29
2022-12-29T05:28:32.006Z,89.78
2022-12-29T05:31:04.939Z,89.58
2022-12-29T05:33:32.553Z,89.53
2022-12-29T05:36:10.428Z,88.35
2022-12-29T05:38:41.140Z,88.40
2022-12-29T05:41:07.810Z,88.43
2022-12-29T05:43:46.628Z,88.70
2022-12-29T05:46:28.826Z,89.06
2022-12-29T05:49:08.604Z,88.77
2022-12-29T05:51:47.936Z,88.68
2022-12-29T05:54:14.720Z,88.90
2022-12-29T05:56:41.652Z,88.74
2022-12-29T05:59:09.254Z,88.80
2022-12-29T06:01:37.304Z,88.53
2022-12-29T06:04:04.268Z,88.11
2022-12-29T06:06:31.953Z,88.46
2022-12-29T06:08:58.895Z,88.15
2022-12-29T06:11:25.619Z,88.97
2022-12-29T06:13:55.915Z,88.79
2022-12-29T06:16:24.063Z,89.07
2022-12-29T06:18:54.534Z,88.92
2022-12-29T06:21:22.299Z,88.78
2022-12-29T06:23:49.002Z,87.74
2022-12-29T06:26:15.801Z,88.60
2022-12-29T06:28:43.838Z,88.66
2022-12-29T06:31:12.578Z,88.37
2022-12-29T06:33:40.076Z,88.41
2022-12-29T06:36:07.322Z,87.62
2022-12-29T06:38:34.068Z,88.18
2022-12-29T06:41:00.738Z,88.47
2022-12-29T06:43:46.050Z,88.96
2022-12-29T06:46:21.216Z,88.24
2022-12-29T06:48:47.922Z,87.63
2022-12-29T06:51:14.538Z,86.94
2022-12-29T06:53:41.397Z,85.89
2022-12-29T06:56:08.144Z,86.13
2022-12-29T06:58:34.800Z,86.52
2022-12-29T07:01:01.420Z,87.07
2022-12-29T07:03:28.244Z,87.82
2022-12-29T07:05:55.446Z,87.27
2022-12-29T07:08:22.167Z,86.28
2022-12-29T07:10:48.790Z,85.98
2022-12-29T07:13:15.513Z,86.31
2022-12-29T07:15:42.358Z,86.89
2022-12-29T07:18:09.034Z,87.06
2022-12-29T07:20:38.158Z,86.93
2022-12-29T07:23:04.933Z,87.58
2022-12-29T07:25:31.590Z,87.90
2022-12-29T07:27:58.278Z,86.98
2022-12-29T07:30:25.190Z,86.17
2022-12-29T07:32:52.032Z,86.02
2022-12-29T07:35:18.702Z,86.57
2022-12-29T07:37:45.384Z,87.00
2022-12-29T07:40:12.344Z,86.99
2022-12-29T07:42:39.097Z,86.97
2022-12-29T07:45:10.207Z,86.22
2022-12-29T07:47:51.419Z,86.36
2022-12-29T07:50:18.175Z,87.04
2022-12-29T07:52:45.736Z,86.32
2022-12-29T07:55:12.494Z,87.05
2022-12-29T07:57:39.435Z,86.58
2022-12-29T08:00:06.699Z,86.97
2022-12-29T08:02:39.154Z,87.65
2022-12-29T08:05:06.660Z,87.53
2022-12-29T08:07:33.338Z,87.69
2022-12-29T08:10:00.237Z,87.91
2022-12-29T08:12:26.792Z,87.43
2022-12-29T08:14:53.576Z,87.42
2022-12-29T08:17:20.274Z,87.51
2022-12-29T08:19:46.891Z,87.74
2022-12-29T08:22:15.400Z,88.48
2022-12-29T08:24:42.201Z,88.60
2022-12-29T08:27:16.215Z,88.76
2022-12-29T08:29:46.976Z,87.52
2022-12-29T08:32:13.914Z,87.17
2022-12-29T08:34:40.652Z,87.36
2022-12-29T08:37:07.301Z,87.96
2022-12-29T08:39:33.965Z,87.90
2022-12-29T08:42:00.671Z,87.58
2022-12-29T08:44:27.486Z,87.46
2022-12-29T08:46:54.237Z,87.39
2022-12-29T08:49:20.925Z,87.40
2022-12-29T08:51:47.655Z,86.82
2022-12-29T08:54:14.577Z,87.35
2022-12-29T08:56:41.340Z,86.94
2022-12-29T08:59:08.790Z,86.12
2022-12-29T09:01:37.494Z,85.57
2022-12-29T09:04:14.753Z,84.76
2022-12-29T09:06:42.086Z,84.48
2022-12-29T09:09:08.745Z,84.73
2022-12-29T09:11:35.819Z,84.81
2022-12-29T09:14:02.753Z,86.79
2022-12-29T09:16:29.523Z,85.32
2022-12-29T09:18:56.203Z,85.12
2022-12-29T09:21:22.948Z,85.28
2022-12-29T09:23:49.885Z,84.11
2022-12-29T09:26:16.526Z,84.49
2022-12-29T09:28:43.370Z,83.77
2022-12-29T09:31:10.247Z,83.46
2022-12-29T09:33:37.167Z,82.30
2022-12-29T09:36:04.533Z,82.34
2022-12-29T09:38:31.449Z,82.43
2022-12-29T09:41:07.469Z,82.18
2022-12-29T09:44:04.778Z,81.86
2022-12-29T09:47:01.853Z,81.31
2022-12-29T09:49:43.830Z,81.13
2022-12-29T09:52:16.461Z,81.22
2022-12-29T09:55:00.089Z,81.04
2022-12-29T09:57:48.385Z,80.92
2022-12-29T10:00:21.536Z,80.56
2022-12-29T10:02:53.209Z,81.06
2022-12-29T10:05:47.405Z,80.87
2022-12-29T10:08:22.801Z,80.63
2022-12-29T10:11:04.311Z,80.43
2022-12-29T10:13:42.884Z,81.67
2022-12-29T10:16:38.660Z,81.85
2022-12-29T10:19:13.950Z,81.46
2022-12-29T10:22:03.710Z,81.57
2022-12-29T10:24:32.805Z,81.51
2022-12-29T10:27:00.357Z,80.36
2022-12-29T10:29:38.782Z,79.67
2022-12-29T10:32:19.685Z,78.99
2022-12-29T10:34:52.253Z,79.21
2022-12-29T10:37:18.931Z,78.85
2022-12-29T10:39:56.143Z,79.32
2022-12-29T10:42:38.429Z,79.39
2022-12-29T10:45:06.582Z,79.92
2022-12-29T10:47:43.596Z,80.50
2022-12-29T10:50:13.444Z,80.12
2022-12-29T10:52:41.605Z,80.03
2022-12-29T10:55:20.339Z,80.75
2022-12-29T10:57:48.200Z,79.26
2022-12-29T11:00:17.637Z,78.78
2022-12-29T11:02:59.598Z,79.08
2022-12-29T11:05:59.156Z,79.37
2022-12-29T11:08:29.361Z,77.31
2022-12-29T11:11:02.176Z,77.64
2022-12-29T11:13:36.733Z,77.38
2022-12-29T11:16:06.056Z,76.82
2022-12-29T11:18:38.332Z,77.55
2022-12-29T11:21:08.411Z,79.10
2022-12-29T11:23:36.818Z,80.03
2022-12-29T11:26:17.231Z,78.04
2022-12-29T11:29:04.165Z,78.27
2022-12-29T11:31:31.007Z,78.43
2022-12-29T11:33:57.698Z,78.42
2022-12-29T11:36:25.878Z,78.54
2022-12-29T11:38:55.621Z,78.41
2022-12-29T11:41:30.983Z,78.63
2022-12-29T11:44:01.164Z,77.13
2022-12-29T11:46:27.930Z,75.45
2022-12-29T11:48:59.259Z,75.71
2022-12-29T11:51:40.296Z,76.26
2022-12-29T11:54:07.183Z,76.47
2022-12-29T11:56:41.329Z,77.10
2022-12-29T11:59:42.047Z,76.73
2022-12-29T12:02:43.690Z,76.74
2022-12-29T12:06:04.738Z,77.05
2022-12-29T12:08:44.953Z,77.09
2022-12-29T12:11:26.381Z,76.87
2022-12-29T12:14:01.473Z,75.79
2022-12-29T12:16:40.485Z,73.75
2022-12-29T12:19:29.265Z,74.21
2022-12-29T12:22:21.179Z,72.92
2022-12-29T12:25:00.081Z,70.59
2022-12-29T12:27:32.588Z,70.83
2022-12-29T12:30:19.257Z,70.94
2022-12-29T12:32:45.881Z,70.82
2022-12-29T12:35:22.279Z,70.20
2022-12-29T12:37:55.465Z,70.21
2022-12-29T12:40:49.930Z,71.38
2022-12-29T12:43:31.695Z,71.47
2022-12-29T12:46:01.513Z,71.87
2022-12-29T12:48:49.270Z,71.33
2022-12-29T12:51:30.420Z,70.37
2022-12-29T12:54:13.747Z,69.25
2022-12-29T12:56:52.350Z,69.70
2022-12-29T13:00:00.153Z,69.36
2022-12-29T13:02:45.390Z,70.28
2022-12-29T13:05:33.692Z,69.73
2022-12-29T13:08:18.774Z,71.49
2022-12-29T13:11:17.052Z,72.92
2022-12-29T13:14:08.710Z,71.87
2022-12-29T13:17:00.329Z,71.70
2022-12-29T13:19:29.601Z,70.31
2022-12-29T13:22:21.476Z,70.29
2022-12-29T13:25:17.275Z,70.07
2022-12-29T13:28:25.582Z,70.06
2022-12-29T13:30:55.242Z,70.35
2022-12-29T13:33:47.434Z,70.90
2022-12-29T13:36:22.833Z,70.59
2022-12-29T13:39:16.174Z,71.29
2022-12-29T13:41:51.273Z,71.63
2022-12-29T13:44:28.031Z,72.06
2022-12-29T13:47:00.004Z,71.95
2022-12-29T13:49:28.063Z,72.47
2022-12-29T13:52:05.386Z,72.77
2022-12-29T13:54:40.785Z,72.61
2022-12-29T13:57:16.944Z,72.34
2022-12-29T13:59:53.113Z,73.52
2022-12-29T14:02:19.836Z,73.31
2022-12-29T14:05:25.165Z,73.57
2022-12-29T14:08:04.099Z,74.28
2022-12-29T14:10:39.473Z,73.67
2022-12-29T14:13:16.678Z,74.18
2022-12-29T14:15:51.726Z,73.76
2022-12-29T14:18:27.537Z,73.24
2022-12-29T14:20:58.708Z,73.29
2022-12-29T14:23:35.627Z,73.28
2022-12-29T14:26:08.140Z,73.12
2022-12-29T14:28:40.377Z,73.15
2022-12-29T14:31:30.414Z,72.86
2022-12-29T14:34:12.445Z,76.34
2022-12-29T14:36:41.702Z,76.58
2022-12-29T14:39:43.495Z,77.18
2022-12-29T14:42:10.207Z,77.22
2022-12-29T14:44:49.381Z,77.15
2022-12-29T14:47:44.155Z,76.82
2022-12-29T14:50:33.442Z,77.14
2022-12-29T14:53:06.280Z,77.06
2022-12-29T14:55:43.778Z,77.07
2022-12-29T14:58:33.570Z,76.83
2022-12-29T15:01:01.463Z,76.59
2022-12-29T15:03:37.316Z,76.06
2022-12-29T15:06:13.727Z,75.95
2022-12-29T15:08:47.808Z,77.77
2022-12-29T15:11:18.205Z,79.81
2022-12-29T15:13:45.832Z,80.00
2022-12-29T15:16:27.499Z,79.15
2022-12-29T15:18:54.790Z,78.37
2022-12-29T15:21:30.932Z,78.07
2022-12-29T15:23:58.228Z,78.32
2022-12-29T15:26:39.078Z,79.75
2022-12-29T15:29:06.211Z,81.05
2022-12-29T15:31:32.855Z,80.36
2022-12-29T15:34:11.459Z,79.90
2022-12-29T15:36:40.355Z,79.62
2022-12-29T15:39:21.259Z,80.41
2022-12-29T15:42:02.732Z,81.51
2022-12-29T15:44:40.487Z,81.62
2022-12-29T15:47:15.399Z,81.90
2022-12-29T15:49:44.699Z,81.28
2022-12-29T15:52:12.137Z,81.46
2022-12-29T15:54:43.829Z,81.59
2022-12-29T15:57:24.254Z,81.18
2022-12-29T15:59:51.418Z,81.72
2022-12-29T16:02:19.502Z,81.95
2022-12-29T16:05:16.005Z,82.42
2022-12-29T16:07:41.536Z,82.75
2022-12-29T16:10:26.641Z,82.67
2022-12-29T16:12:53.704Z,82.10
2022-12-29T16:15:20.635Z,81.90
2022-12-29T16:17:54.345Z,82.12
2022-12-29T16:20:25.846Z,81.89
2022-12-29T16:23:01.567Z,82.64
2022-12-29T16:25:35.773Z,82.07
2022-12-29T16:28:15.726Z,81.67
2022-12-29T16:30:42.476Z,81.51
2022-12-29T16:33:33.670Z,80.96
2022-12-29T16:36:00.389Z,80.85
2022-12-29T16:38:34.072Z,81.04
2022-12-29T16:41:05.676Z,80.37
2022-12-29T16:43:42.757Z,81.52
2022-12-29T16:46:29.933Z,80.71
2022-12-29T16:48:58.428Z,80.49
2022-12-29T16:51:34.170Z,80.72
2022-12-29T16:54:01.875Z,80.88
2022-12-29T16:56:32.933Z,80.79
2022-12-29T16:59:08.705Z,80.82
2022-12-29T17:01:40.173Z,81.49
2022-12-29T17:04:12.232Z,81.27
2022-12-29T17:06:39.334Z,81.64
2022-12-29T17:09:32.039Z,81.47
2022-12-29T17:12:10.363Z,80.20
2022-12-29T17:14:46.706Z,80.06
2022-12-29T17:17:27.880Z,80.54
2022-12-29T17:20:03.962Z,80.80
2022-12-29T17:22:31.648Z,80.66
2022-12-29T17:25:00.806Z,80.74
2022-12-29T17:27:50.775Z,81.26
2022-12-29T17:30:20.814Z,80.93
2022-12-29T17:32:53.118Z,80.39
2022-12-29T17:35:21.941Z,80.64
2022-12-29T17:37:49.446Z,80.24
2022-12-29T17:40:22.342Z,79.76
2022-12-29T17:42:52.376Z,80.04
2022-12-29T17:45:32.271Z,80.21
2022-12-29T17:48:02.880Z,80.47
2022-12-29T17:50:31.584Z,79.63
2022-12-29T17:53:07.218Z,79.72
2022-12-29T17:55:38.288Z,79.26
2022-12-29T17:58:27.019Z,79.06
2022-12-29T18:00:56.215Z,78.80
2022-12-29T18:03:30.837Z,79.10
2022-12-29T18:05:58.144Z,79.17
2022-12-29T18:08:24.807Z,79.71
2022-12-29T18:10:53.920Z,78.60
2022-12-29T18:13:33.567Z,79.01
2022-12-29T18:16:06.103Z,79.22
2022-12-29T18:18:32.742Z,79.66
2022-12-29T18:21:00.327Z,79.79
2022-12-29T18:23:32.660Z,79.83
2022-12-29T18:26:03.507Z,80.37
2022-12-29T18:28:30.497Z,80.09
2022-12-29T18:30:59.114Z,79.51
2022-12-29T18:33:26.798Z,79.92
2022-12-29T18:36:05.303Z,79.53
2022-12-29T18:38:32.167Z,79.71
2022-12-29T18:40:59.355Z,80.07
2022-12-29T18:43:26.671Z,80.24
2022-12-29T18:45:53.303Z,80.46
2022-12-29T18:48:20.586Z,80.31
2022-12-29T18:50:51.774Z,79.80
2022-12-29T18:53:23.779Z,80.14
2022-12-29T18:55:54.211Z,80.09
2022-12-29T18:58:21.058Z,80.30
2022-12-29T19:00:47.803Z,80.33
2022-12-29T19:03:16.743Z,80.00
2022-12-29T19:05:45.217Z,79.60
2022-12-29T19:08:12.751Z,79.61
2022-12-29T19:10:42.024Z,79.76
2022-12-29T19:13:16.511Z,79.61
2022-12-29T19:15:44.055Z,79.74
2022-12-29T19:18:43.238Z,79.40
2022-12-29T19:21:03.209Z,79.62
2022-12-29T19:23:29.810Z,79.67
2022-12-29T19:25:56.514Z,80.58
2022-12-29T19:28:28.196Z,80.84
2022-12-29T19:30:59.715Z,81.23
2022-12-29T19:33:26.594Z,81.32
2022-12-29T19:35:53.294Z,81.16
2022-12-29T19:38:20.162Z,80.71
2022-12-29T19:40:50.179Z,81.13
2022-12-29T19:43:17.627Z,80.88
2022-12-29T19:45:45.454Z,80.99
2022-12-29T19:48:18.872Z,81.21
2022-12-29T19:50:46.564Z,80.46
2022-12-29T19:53:14.524Z,80.23
2022-12-29T19:55:46.058Z,80.49
2022-12-29T19:58:13.300Z,80.31
2022-12-29T20:00:41.722Z,80.67
2022-12-29T20:03:09.243Z,80.92
2022-12-29T20:05:36.354Z,81.46
2022-12-29T20:08:03.121Z,81.29
2022-12-29T20:10:29.899Z,82.21
2022-12-29T20:12:56.608Z,82.10
2022-12-29T20:15:23.327Z,82.29
2022-12-29T20:20:37.392Z,82.18
2022-12-29T20:23:04.179Z,82.61
2022-12-29T20:25:47.166Z,82.48
2022-12-29T20:28:15.928Z,82.18
2022-12-29T20:30:43.255Z,81.58
2022-12-29T20:33:10.028Z,81.29
2022-12-29T20:35:37.410Z,81.48
2022-12-29T20:38:04.873Z,82.22
2022-12-29T20:40:31.576Z,81.95
2022-12-29T20:42:58.262Z,81.62
2022-12-29T20:45:25.157Z,81.72
2022-12-29T20:47:52.139Z,82.07
2022-12-29T20:50:19.025Z,81.94
2022-12-29T20:52:46.826Z,81.73
2022-12-29T20:55:13.851Z,82.37
2022-12-29T20:58:14.221Z,82.69
2022-12-29T21:00:30.417Z,83.41
2022-12-29T21:02:59.057Z,83.39
2022-12-29T21:05:27.045Z,83.44
2022-12-29T21:07:54.615Z,83.39
2022-12-29T21:10:22.405Z,83.21
2022-12-29T21:12:49.403Z,82.86
2022-12-29T21:15:16.482Z,82.88
2022-12-29T21:17:44.179Z,83.13
2022-12-29T21:20:19.973Z,83.14
2022-12-29T21:22:48.572Z,83.57
2022-12-29T21:25:15.874Z,83.54
2022-12-29T21:27:44.077Z,83.61
2022-12-29T21:30:12.007Z,83.76
2022-12-29T21:32:39.567Z,83.63
2022-12-29T21:35:06.848Z,84.24
2022-12-29T21:37:34.065Z,84.21
2022-12-29T21:40:00.846Z,84.33
2022-12-29T21:42:27.657Z,83.74
2022-12-29T21:45:19.820Z,83.73
2022-12-29T21:48:05.826Z,83.49
2022-12-29T21:50:32.863Z,84.03
2022-12-29T21:52:59.424Z,84.36
2022-12-29T21:55:26.095Z,84.65
2022-12-29T21:58:11.344Z,84.64
2022-12-29T22:00:56.598Z,84.82
2022-12-29T22:03:41.896Z,83.66
2022-12-29T22:06:30.267Z,81.96
2022-12-29T22:09:15.814Z,81.44
2022-12-29T22:12:00.873Z,82.36
2022-12-29T22:14:27.536Z,82.55
2022-12-29T22:16:54.137Z,83.47
2022-12-29T22:19:20.925Z,83.19
2022-12-29T22:21:47.591Z,83.50
2022-12-29T22:24:14.297Z,83.55
2022-12-29T22:26:40.886Z,83.21
2022-12-29T22:29:07.759Z,83.21
2022-12-29T22:31:34.478Z,82.08
2022-12-29T22:34:03.117Z,82.52
2022-12-29T22:36:30.364Z,82.93
2022-12-29T22:38:57.139Z,82.93
2022-12-29T22:41:24.265Z,82.47
2022-12-29T22:43:51.016Z,82.66
2022-12-29T22:46:18.157Z,83.22
2022-12-29T22:48:44.900Z,83.66
2022-12-29T22:51:12.010Z,83.68
2022-12-29T22:53:39.546Z,84.05
2022-12-29T22:56:10.257Z,83.08
2022-12-29T22:58:48.174Z,83.48
2022-12-29T23:01:17.520Z,83.66
2022-12-29T23:03:45.122Z,83.81
2022-12-29T23:06:13.945Z,83.85
2022-12-29T23:08:40.675Z,84.26
2022-12-29T23:11:10.494Z,84.52
2022-12-29T23:13:37.774Z,84.27
2022-12-29T23:16:05.240Z,84.06
2022-12-29T23:18:31.830Z,84.30
2022-12-29T23:20:58.774Z,83.83
2022-12-29T23:23:48.742Z,84.50
2022-12-29T23:26:18.268Z,85.67
2022-12-29T23:28:45.528Z,85.47
2022-12-29T23:31:12.583Z,85.27
2022-12-29T23:33:39.309Z,85.42
2022-12-29T23:36:06.598Z,85.60
2022-12-29T23:38:33.638Z,85.09
2022-12-29T23:41:00.589Z,85.20
2022-12-29T23:43:27.357Z,85.10
2022-12-29T23:45:53.994Z,85.02
2022-12-29T23:48:20.669Z,84.45
2022-12-29T23:50:47.358Z,84.44
2022-12-29T23:53:14.265Z,84.24
2022-12-29T23:55:43.021Z,84.32
2022-12-29T23:58:10.389Z,84.09
